createdAt,value
2018-09-20T00:01:55.024Z,7.90
2018-09-20T00:04:24.694Z,8.03
2018-09-20T00:06:55.564Z,7.80
2018-09-20T00:09:25.255Z,7.70
2018-09-20T00:11:54.866Z,8.30
2018-09-20T00:14:24.500Z,7.33
2018-09-20T00:16:54.163Z,7.67
2018-09-20T00:19:23.830Z,8.43
2018-09-20T00:21:53.462Z,8.40
2018-09-20T00:24:23.153Z,7.90
2018-09-20T00:26:52.831Z,7.60
2018-09-20T00:29:22.469Z,7.73
2018-09-20T00:31:52.165Z,7.83
2018-09-20T00:34:21.806Z,7.70
2018-09-20T00:36:51.491Z,8.17
2018-09-20T00:39:21.201Z,8.60
2018-09-20T00:41:51.072Z,9.03
2018-09-20T00:44:20.719Z,7.60
2018-09-20T00:46:50.481Z,8.03
2018-09-20T00:49:20.093Z,8.40
2018-09-20T00:51:49.708Z,8.13
2018-09-20T00:54:19.358Z,7.83
2018-09-20T00:56:48.984Z,7.90
2018-09-20T00:59:18.602Z,7.17
2018-09-20T01:01:48.260Z,7.80
2018-09-20T01:04:17.921Z,8.27
2018-09-20T01:06:47.535Z,8.07
2018-09-20T01:09:17.161Z,8.33
2018-09-20T01:11:46.863Z,7.70
2018-09-20T01:14:16.536Z,8.80
2018-09-20T01:16:46.164Z,7.40
2018-09-20T01:19:15.768Z,8.10
2018-09-20T01:21:45.722Z,8.37
2018-09-20T01:24:15.343Z,7.97
2018-09-20T01:26:44.955Z,8.00
2018-09-20T01:29:14.616Z,8.23
2018-09-20T01:31:44.240Z,8.23
2018-09-20T01:34:13.868Z,8.27
2018-09-20T01:36:43.492Z,8.50
2018-09-20T01:39:15.098Z,8.70
2018-09-20T01:41:44.824Z,7.87
2018-09-20T01:44:14.813Z,9.47
2018-09-20T01:46:44.499Z,8.20
2018-09-20T01:49:14.132Z,8.17
2018-09-20T01:51:43.782Z,7.60
2018-09-20T01:54:13.412Z,8.17
2018-09-20T01:56:43.035Z,9.03
2018-09-20T01:59:12.922Z,8.93
2018-09-20T02:01:42.548Z,8.93
2018-09-20T02:04:12.200Z,8.17
2018-09-20T02:06:41.906Z,9.03
2018-09-20T02:09:12.107Z,8.97
2018-09-20T02:11:41.738Z,9.57
2018-09-20T02:14:11.384Z,8.50
2018-09-20T02:16:41.007Z,8.83
2018-09-20T02:19:10.647Z,8.13
2018-09-20T02:21:40.299Z,8.13
2018-09-20T02:24:10.193Z,7.37
2018-09-20T02:26:39.811Z,7.70
2018-09-20T02:29:09.440Z,7.13
2018-09-20T02:31:39.070Z,7.33
2018-09-20T02:34:08.703Z,7.30
2018-09-20T02:36:38.327Z,7.47
2018-09-20T02:39:09.001Z,7.33
2018-09-20T02:41:38.805Z,7.27
2018-09-20T02:44:08.431Z,7.30
2018-09-20T02:46:38.063Z,7.33
2018-09-20T02:49:07.681Z,7.73
2018-09-20T02:51:38.043Z,7.60
2018-09-20T02:54:07.685Z,7.67
2018-09-20T02:56:37.312Z,7.70
2018-09-20T02:59:06.939Z,8.53
2018-09-20T03:01:36.592Z,8.23
2018-09-20T03:04:06.240Z,8.53
2018-09-20T03:06:35.899Z,8.80
2018-09-20T03:09:07.979Z,8.37
2018-09-20T03:11:37.624Z,8.50
2018-09-20T03:14:07.492Z,8.83
2018-09-20T03:16:37.149Z,9.47
2018-09-20T03:19:06.927Z,8.97
2018-09-20T03:21:36.589Z,10.00
2018-09-20T03:24:06.365Z,9.97
2018-09-20T03:26:38.773Z,9.53
2018-09-20T03:29:10.856Z,9.50
2018-09-20T03:31:40.731Z,9.17
2018-09-20T03:34:10.398Z,9.27
2018-09-20T03:36:40.088Z,9.27
2018-09-20T03:39:11.033Z,7.93
2018-09-20T03:41:41.345Z,9.03
2018-09-20T03:44:11.008Z,8.30
2018-09-20T03:46:40.655Z,8.67
2018-09-20T03:49:10.288Z,8.03
2018-09-20T03:51:39.941Z,8.37
2018-09-20T03:54:09.664Z,7.83
2018-09-20T03:56:39.336Z,7.83
2018-09-20T03:59:09.058Z,8.43
2018-09-20T04:01:38.749Z,8.07
2018-09-20T04:04:08.433Z,7.70
2018-09-20T04:07:22.524Z,8.73
2018-09-20T04:09:52.356Z,9.47
2018-09-20T04:12:22.108Z,9.60
2018-09-20T04:14:52.043Z,9.97
2018-09-20T04:17:21.803Z,10.10
2018-09-20T04:19:51.547Z,8.60
2018-09-20T04:22:21.292Z,9.80
2018-09-20T04:24:51.018Z,10.20
2018-09-20T04:27:20.761Z,10.53
2018-09-20T04:29:50.544Z,9.13
2018-09-20T04:32:20.304Z,10.03
2018-09-20T04:34:50.087Z,10.47
2018-09-20T04:37:19.813Z,10.27
2018-09-20T04:39:49.512Z,9.33
2018-09-20T04:42:19.171Z,10.20
2018-09-20T04:44:48.846Z,10.47
2018-09-20T04:47:18.561Z,10.10
2018-09-20T04:49:48.358Z,11.40
2018-09-20T04:52:18.068Z,10.93
2018-09-20T04:54:47.914Z,11.57
2018-09-20T04:57:17.571Z,11.30
2018-09-20T04:59:47.201Z,10.83
2018-09-20T05:02:16.821Z,10.50
2018-09-20T05:04:46.464Z,10.53
2018-09-20T05:07:16.105Z,11.53
2018-09-20T05:09:45.764Z,11.63
2018-09-20T05:12:15.401Z,11.53
2018-09-20T05:14:45.020Z,12.27
2018-09-20T05:17:14.679Z,11.83
2018-09-20T05:19:44.332Z,12.03
2018-09-20T05:22:13.981Z,12.10
2018-09-20T05:24:43.791Z,12.27
2018-09-20T05:27:13.624Z,11.17
2018-09-20T05:29:43.318Z,12.63
2018-09-20T05:32:12.996Z,12.73
2018-09-20T05:34:42.630Z,12.93
2018-09-20T05:37:12.266Z,12.63
2018-09-20T05:39:41.876Z,15.20
2018-09-20T05:42:11.541Z,15.30
2018-09-20T05:44:41.271Z,15.03
2018-09-20T05:47:10.985Z,14.20
2018-09-20T05:49:40.610Z,14.07
2018-09-20T05:52:10.255Z,12.90
2018-09-20T05:54:39.899Z,12.20
2018-09-20T05:57:09.526Z,12.63
2018-09-20T05:59:39.153Z,14.13
2018-09-20T06:02:08.801Z,13.43
2018-09-20T06:04:38.435Z,14.37
2018-09-20T06:07:08.040Z,12.03
2018-09-20T06:09:37.668Z,12.43
2018-09-20T06:12:07.298Z,11.07
2018-09-20T06:14:36.957Z,11.03
2018-09-20T06:17:06.645Z,9.87
2018-09-20T06:19:36.293Z,10.33
2018-09-20T06:22:06.171Z,11.17
2018-09-20T06:24:35.825Z,12.00
2018-09-20T06:27:06.068Z,11.93
2018-09-20T06:29:35.744Z,10.30
2018-09-20T06:32:05.492Z,12.87
2018-09-20T06:34:35.152Z,15.83
2018-09-20T06:37:04.839Z,21.70
2018-09-20T06:39:34.483Z,11.40
2018-09-20T06:42:04.101Z,11.73
2018-09-20T06:44:33.748Z,10.93
2018-09-20T06:47:03.381Z,10.70
2018-09-20T06:49:33.074Z,11.30
2018-09-20T06:52:02.696Z,10.93
2018-09-20T06:54:32.387Z,10.50
2018-09-20T06:57:02.026Z,11.30
2018-09-20T06:59:31.670Z,10.50
2018-09-20T07:02:01.301Z,10.20
2018-09-20T07:04:30.943Z,10.30
2018-09-20T07:07:00.588Z,10.63
2018-09-20T07:09:31.118Z,10.43
2018-09-20T07:12:00.776Z,10.53
2018-09-20T07:14:30.472Z,9.60
2018-09-20T07:17:00.186Z,9.87
2018-09-20T07:19:30.140Z,10.10
2018-09-20T07:21:59.788Z,10.70
2018-09-20T07:24:29.439Z,9.60
2018-09-20T07:26:59.066Z,10.03
2018-09-20T07:29:28.708Z,8.67
2018-09-20T07:31:58.371Z,9.83
2018-09-20T07:34:28.059Z,9.70
2018-09-20T07:36:57.668Z,8.67
2018-09-20T07:39:27.286Z,10.47
2018-09-20T07:41:56.928Z,9.67
2018-09-20T07:44:26.578Z,9.43
2018-09-20T07:46:56.232Z,7.93
2018-09-20T07:49:26.104Z,7.47
2018-09-20T07:51:55.711Z,7.97
2018-09-20T07:54:25.346Z,8.83
2018-09-20T07:56:54.996Z,8.43
2018-09-20T07:59:24.668Z,7.53
2018-09-20T08:01:54.345Z,6.87
2018-09-20T08:04:23.941Z,9.23
2018-09-20T08:06:53.575Z,7.97
2018-09-20T08:09:23.196Z,8.57
2018-09-20T08:11:52.872Z,9.27
2018-09-20T08:14:22.803Z,7.43
2018-09-20T08:16:52.419Z,8.10
2018-09-20T08:19:22.167Z,8.33
2018-09-20T08:21:51.786Z,7.47
2018-09-20T08:24:21.428Z,7.00
2018-09-20T08:26:51.760Z,7.73
2018-09-20T08:29:21.642Z,8.40
2018-09-20T08:31:51.871Z,8.77
2018-09-20T08:34:21.535Z,7.57
2018-09-20T08:36:51.165Z,7.63
2018-09-20T08:39:20.768Z,8.67
2018-09-20T08:41:50.605Z,8.13
2018-09-20T08:44:20.223Z,7.80
2018-09-20T08:46:49.860Z,7.57
2018-09-20T08:49:19.552Z,8.10
2018-09-20T08:51:49.160Z,7.20
2018-09-20T08:54:18.787Z,7.73
2018-09-20T08:56:48.413Z,7.87
2018-09-20T08:59:18.031Z,6.77
2018-09-20T09:01:47.644Z,7.03
2018-09-20T09:04:17.273Z,8.10
2018-09-20T09:06:46.879Z,6.63
2018-09-20T09:09:16.497Z,7.57
2018-09-20T09:11:46.142Z,7.07
2018-09-20T09:14:15.747Z,7.40
2018-09-20T09:16:45.359Z,7.20
2018-09-20T09:19:15.091Z,6.80
2018-09-20T09:21:44.720Z,6.53
2018-09-20T09:24:14.342Z,6.77
2018-09-20T09:26:44.260Z,5.90
2018-09-20T09:29:13.860Z,5.90
2018-09-20T09:31:43.476Z,6.50
2018-09-20T09:34:13.090Z,6.90
2018-09-20T09:36:44.049Z,6.67
2018-09-20T09:39:14.467Z,5.97
2018-09-20T09:41:44.507Z,6.45
2018-09-20T09:44:14.107Z,6.20
2018-09-20T09:46:43.961Z,6.27
2018-09-20T09:49:13.625Z,6.10
2018-09-20T09:51:43.244Z,6.45
2018-09-20T09:54:12.906Z,6.60
2018-09-20T09:56:42.565Z,5.92
2018-09-20T09:59:12.171Z,6.25
2018-09-20T10:01:41.866Z,6.78
2018-09-20T10:04:11.479Z,6.70
2018-09-20T10:06:41.164Z,6.70
2018-09-20T10:09:11.717Z,7.05
2018-09-20T10:11:41.356Z,6.37
2018-09-20T10:14:10.993Z,6.25
2018-09-20T10:16:40.641Z,6.70
2018-09-20T10:19:10.276Z,6.85
2018-09-20T10:21:39.917Z,6.37
2018-09-20T10:24:09.858Z,5.92
2018-09-20T10:26:39.496Z,6.50
2018-09-20T10:29:09.225Z,6.90
2018-09-20T10:31:38.886Z,6.00
2018-09-20T10:34:08.845Z,6.10
2018-09-20T10:36:38.429Z,6.37
2018-09-20T10:39:10.403Z,6.58
2018-09-20T10:41:40.057Z,6.53
2018-09-20T10:44:10.861Z,6.35
2018-09-20T10:46:40.483Z,6.40
2018-09-20T10:49:10.173Z,5.87
2018-09-20T10:51:39.828Z,6.58
2018-09-20T10:54:09.468Z,5.97
2018-09-20T10:56:39.080Z,6.70
2018-09-20T10:59:09.009Z,5.87
2018-09-20T11:01:38.616Z,5.78
2018-09-20T11:04:09.225Z,5.70
2018-09-20T11:06:38.852Z,6.10
2018-09-20T11:09:09.757Z,5.90
2018-09-20T11:11:39.804Z,5.62
2018-09-20T11:14:09.439Z,5.65
2018-09-20T11:16:39.770Z,5.35
2018-09-20T11:19:09.457Z,5.35
2018-09-20T11:21:39.072Z,5.33
2018-09-20T11:24:08.686Z,5.65
2018-09-20T11:26:38.308Z,5.42
2018-09-20T11:29:08.469Z,6.10
2018-09-20T11:31:38.075Z,5.33
2018-09-20T11:34:07.969Z,6.20
2018-09-20T11:36:37.580Z,5.70
2018-09-20T11:39:09.677Z,5.42
2018-09-20T11:41:39.403Z,5.80
2018-09-20T11:44:09.500Z,5.42
2018-09-20T11:46:39.294Z,4.78
2018-09-20T11:49:08.936Z,4.70
2018-09-20T11:51:38.561Z,5.17
2018-09-20T11:54:08.212Z,5.30
2018-09-20T11:56:37.845Z,4.55
2018-09-20T11:59:07.486Z,5.08
2018-09-20T12:01:37.132Z,4.35
2018-09-20T12:04:06.800Z,4.80
2018-09-20T12:06:36.420Z,4.95
2018-09-20T12:09:07.447Z,4.87
2018-09-20T12:11:37.069Z,7.65
2018-09-20T12:14:06.742Z,4.90
2018-09-20T12:16:36.371Z,5.00
2018-09-20T12:19:06.149Z,6.60
2018-09-20T12:21:35.784Z,5.17
2018-09-20T12:24:05.436Z,5.17
2018-09-20T12:26:35.069Z,5.03
2018-09-20T12:29:04.797Z,4.47
2018-09-20T12:31:34.484Z,4.78
2018-09-20T12:34:04.487Z,5.20
2018-09-20T12:36:34.139Z,5.58
2018-09-20T12:39:04.969Z,5.08
2018-09-20T12:41:34.599Z,10.05
2018-09-20T12:44:04.241Z,5.85
2018-09-20T12:46:33.879Z,8.45
2018-09-20T12:49:03.571Z,5.62
2018-09-20T12:51:33.627Z,5.25
2018-09-20T12:54:03.493Z,4.65
2018-09-20T12:56:33.247Z,4.87
2018-09-20T12:59:02.904Z,3.95
2018-09-20T13:01:32.541Z,4.78
2018-09-20T13:04:02.205Z,4.60
2018-09-20T13:06:31.830Z,4.10
2018-09-20T13:09:01.440Z,5.03
2018-09-20T13:11:31.373Z,4.62
2018-09-20T13:14:01.013Z,4.95
2018-09-20T13:16:30.636Z,4.30
2018-09-20T13:19:00.247Z,4.47
2018-09-20T13:21:29.896Z,4.53
2018-09-20T13:23:59.482Z,4.70
2018-09-20T13:26:29.109Z,4.70
2018-09-20T13:28:58.713Z,4.28
2018-09-20T13:31:28.368Z,4.78
2018-09-20T13:33:58.021Z,4.72
2018-09-20T13:36:27.660Z,4.40
2018-09-20T13:38:57.340Z,4.90
2018-09-20T13:41:26.987Z,4.90
2018-09-20T13:43:57.355Z,4.75
2018-09-20T13:46:26.983Z,4.50
2018-09-20T13:48:56.603Z,4.50
2018-09-20T13:51:26.243Z,4.25
2018-09-20T13:53:55.843Z,4.53
2018-09-20T13:56:25.566Z,4.83
2018-09-20T13:58:55.214Z,4.45
2018-09-20T14:01:24.871Z,5.10
2018-09-20T14:03:54.518Z,4.85
2018-09-20T14:06:24.139Z,5.40
2018-09-20T14:08:53.752Z,4.90
2018-09-20T14:11:23.393Z,5.90
2018-09-20T14:13:53.015Z,8.33
2018-09-20T14:16:22.681Z,5.87
2018-09-20T14:18:52.344Z,6.17
2018-09-20T14:21:21.982Z,4.70
2018-09-20T14:23:51.632Z,4.80
2018-09-20T14:26:21.310Z,4.45
2018-09-20T14:28:51.153Z,4.72
2018-09-20T14:31:20.774Z,5.10
2018-09-20T14:33:50.428Z,5.25
2018-09-20T14:36:20.045Z,5.35
2018-09-20T14:38:49.728Z,5.45
2018-09-20T14:41:19.348Z,5.47
2018-09-20T14:43:49.102Z,4.75
2018-09-20T14:46:18.729Z,4.80
2018-09-20T14:48:48.400Z,6.55
2018-09-20T14:51:18.031Z,4.78
2018-09-20T14:53:47.654Z,5.05
2018-09-20T14:56:17.279Z,5.10
2018-09-20T14:58:46.917Z,5.60
2018-09-20T15:01:16.540Z,4.60
2018-09-20T15:03:46.169Z,5.12
2018-09-20T15:06:15.836Z,4.95
2018-09-20T15:08:45.484Z,4.83
2018-09-20T15:11:15.128Z,5.03
2018-09-20T15:13:44.756Z,4.83
2018-09-20T15:16:14.373Z,5.33
2018-09-20T15:18:44.007Z,4.78
2018-09-20T15:21:13.690Z,4.40
2018-09-20T15:23:43.291Z,5.10
2018-09-20T15:26:12.978Z,4.92
2018-09-20T15:28:42.625Z,4.60
2018-09-20T15:31:12.239Z,4.40
2018-09-20T15:33:41.885Z,4.75
2018-09-20T15:36:11.513Z,4.75
2018-09-20T15:38:41.144Z,5.08
2018-09-20T15:41:10.771Z,4.80
2018-09-20T15:43:40.409Z,4.80
2018-09-20T15:46:10.344Z,5.15
2018-09-20T15:48:39.989Z,5.58
2018-09-20T15:51:09.683Z,4.80
2018-09-20T15:53:39.323Z,4.95
2018-09-20T15:56:09.719Z,5.10
2018-09-20T15:58:40.244Z,4.90
2018-09-20T16:01:11.449Z,6.00
2018-09-20T16:03:41.175Z,5.05
2018-09-20T16:06:10.831Z,5.97
2018-09-20T16:08:40.424Z,5.37
2018-09-20T16:11:10.027Z,5.87
2018-09-20T16:13:39.701Z,4.60
2018-09-20T16:16:09.330Z,5.55
2018-09-20T16:18:38.955Z,5.78
2018-09-20T16:21:08.579Z,5.22
2018-09-20T16:23:38.296Z,4.55
2018-09-20T16:26:07.947Z,4.30
2018-09-20T16:28:44.605Z,4.75
2018-09-20T16:31:28.508Z,4.78
2018-09-20T16:35:12.596Z,4.08
2018-09-20T16:38:48.860Z,3.75
2018-09-20T16:41:22.243Z,4.20
2018-09-20T16:43:51.863Z,4.12
2018-09-20T16:46:21.485Z,4.08
2018-09-20T16:48:51.097Z,4.40
2018-09-20T16:51:20.705Z,4.30
2018-09-20T16:53:50.342Z,4.20
2018-09-20T16:56:20.028Z,4.17
2018-09-20T16:58:50.968Z,4.90
2018-09-20T17:01:21.287Z,4.45
2018-09-20T17:03:50.888Z,4.83
2018-09-20T17:06:21.736Z,4.20
2018-09-20T17:08:52.055Z,4.17
2018-09-20T17:11:21.719Z,4.55
2018-09-20T17:13:51.393Z,4.63
2018-09-20T17:16:21.065Z,4.93
2018-09-20T17:18:50.713Z,5.55
2018-09-20T17:21:20.321Z,6.13
2018-09-20T17:23:49.924Z,5.10
2018-09-20T17:26:19.525Z,5.50
2018-09-20T17:28:49.192Z,5.37
2018-09-20T17:31:18.811Z,5.40
2018-09-20T17:33:48.416Z,5.20
2018-09-20T17:36:18.388Z,5.07
2018-09-20T17:38:48.596Z,4.80
2018-09-20T17:41:21.348Z,4.63
2018-09-20T17:43:52.895Z,4.37
2018-09-20T17:46:22.526Z,4.77
2018-09-20T17:48:52.106Z,5.23
2018-09-20T17:51:22.154Z,4.53
2018-09-20T17:53:52.233Z,4.40
2018-09-20T17:56:23.452Z,4.57
2018-09-20T17:58:53.541Z,4.57
2018-09-20T18:01:23.163Z,4.47
2018-09-20T18:03:52.820Z,4.37
2018-09-20T18:06:24.242Z,5.20
2018-09-20T18:08:53.880Z,4.80
2018-09-20T18:11:23.511Z,4.53
2018-09-20T18:13:53.128Z,4.70
2018-09-20T18:16:22.748Z,4.60
2018-09-20T18:18:52.379Z,5.20
2018-09-20T18:21:21.998Z,5.23
2018-09-20T18:23:51.609Z,4.87
2018-09-20T18:26:21.250Z,5.33
2018-09-20T18:28:50.881Z,5.00
2018-09-20T18:31:20.503Z,5.43
2018-09-20T18:33:50.124Z,5.63
2018-09-20T18:36:19.737Z,6.63
2018-09-20T18:38:49.342Z,6.47
2018-09-20T18:41:19.092Z,6.73
2018-09-20T18:43:48.718Z,6.40
2018-09-20T18:46:18.352Z,6.40
2018-09-20T18:51:28.221Z,6.43
2018-09-20T18:53:58.316Z,6.63
2018-09-20T18:56:28.477Z,6.70
2018-09-20T18:58:58.089Z,7.07
2018-09-20T19:01:27.735Z,6.77
2018-09-20T19:03:57.361Z,6.40
2018-09-20T19:06:27.061Z,7.47
2018-09-20T19:08:57.045Z,7.30
2018-09-20T19:11:27.024Z,7.60
2018-09-20T19:13:56.627Z,7.57
2018-09-20T19:16:26.268Z,6.70
2018-09-20T19:18:55.932Z,7.20
2018-09-20T19:21:25.552Z,8.10
2018-09-20T19:23:55.260Z,9.17
2018-09-20T19:26:24.880Z,8.70
2018-09-20T19:28:54.570Z,9.57
2018-09-20T19:31:24.784Z,12.00
2018-09-20T19:33:54.448Z,11.97
2018-09-20T19:36:24.088Z,12.13
2018-09-20T19:38:53.782Z,12.20
2018-09-20T19:41:23.463Z,11.80
2018-09-20T19:43:53.080Z,11.97
2018-09-20T19:46:22.723Z,11.17
2018-09-20T19:48:52.372Z,11.90
2018-09-20T19:51:21.999Z,11.47
2018-09-20T19:53:51.655Z,11.60
2018-09-20T19:56:21.573Z,10.80
2018-09-20T19:58:51.284Z,12.53
2018-09-20T20:01:20.935Z,12.97
2018-09-20T20:03:50.593Z,12.27
2018-09-20T20:06:20.252Z,14.00
2018-09-20T20:08:49.888Z,17.93
2018-09-20T20:11:19.559Z,15.67
2018-09-20T20:13:49.185Z,14.33
2018-09-20T20:16:18.820Z,13.97
2018-09-20T20:18:48.495Z,12.90
2018-09-20T20:21:18.154Z,13.47
2018-09-20T20:23:48.650Z,14.13
2018-09-20T20:26:18.288Z,14.40
2018-09-20T20:28:47.892Z,13.20
2018-09-20T20:31:17.494Z,13.27
2018-09-20T20:33:47.165Z,14.30
2018-09-20T20:36:17.029Z,14.00
2018-09-20T20:38:46.665Z,18.57
2018-09-20T20:41:16.736Z,21.20
2018-09-20T20:43:46.596Z,22.17
2018-09-20T20:46:16.875Z,17.50
2018-09-20T20:48:46.595Z,15.47
2018-09-20T20:51:17.167Z,12.80
2018-09-20T20:53:46.816Z,13.87
2018-09-20T20:56:16.448Z,14.80
2018-09-20T20:58:46.176Z,13.37
2018-09-20T21:01:20.505Z,12.60
2018-09-20T21:03:51.457Z,12.73
2018-09-20T21:06:22.059Z,11.57
2018-09-20T21:08:51.695Z,12.23
2018-09-20T21:11:21.330Z,11.73
2018-09-20T21:13:50.950Z,12.00
2018-09-20T21:16:20.571Z,13.97
2018-09-20T21:18:50.204Z,11.73
2018-09-20T21:21:19.885Z,12.30
2018-09-20T21:23:49.512Z,12.80
2018-09-20T21:26:19.138Z,10.03
2018-09-20T21:28:48.730Z,11.13
2018-09-20T21:31:18.402Z,12.47
2018-09-20T21:33:48.057Z,11.40
2018-09-20T21:36:17.688Z,10.60
2018-09-20T21:38:47.324Z,14.63
2018-09-20T21:41:16.932Z,11.37
2018-09-20T21:43:46.787Z,12.23
2018-09-20T21:46:16.443Z,14.77
2018-09-20T21:48:46.172Z,14.50
2018-09-20T21:51:15.830Z,16.20
2018-09-20T21:53:45.436Z,15.20
2018-09-20T21:56:15.054Z,15.37
2018-09-20T21:58:44.698Z,18.33
2018-09-20T22:01:14.996Z,16.23
2018-09-20T22:03:44.612Z,12.63
2018-09-20T22:06:14.232Z,19.27
2018-09-20T22:08:43.831Z,16.30
2018-09-20T22:11:13.475Z,14.33
2018-09-20T22:13:43.106Z,13.13
2018-09-20T22:16:12.713Z,15.07
2018-09-20T22:18:42.374Z,23.53
2018-09-20T22:21:12.001Z,36.13
2018-09-20T22:23:41.621Z,23.23
2018-09-20T22:26:11.237Z,14.40
2018-09-20T22:28:40.864Z,13.93
2018-09-20T22:31:10.558Z,13.60
2018-09-20T22:33:40.168Z,13.03
2018-09-20T22:36:09.786Z,16.07
2018-09-20T22:38:39.433Z,12.10
2018-09-20T22:41:09.145Z,15.03
2018-09-20T22:43:38.767Z,12.03
2018-09-20T22:46:08.400Z,12.80
2018-09-20T22:48:38.136Z,14.43
2018-09-20T22:51:08.272Z,10.83
2018-09-20T22:53:37.956Z,11.67
2018-09-20T22:56:07.772Z,10.43
2018-09-20T22:58:37.438Z,9.47
2018-09-20T23:01:07.188Z,8.53
2018-09-20T23:03:36.787Z,8.60
2018-09-20T23:06:06.424Z,8.60
2018-09-20T23:08:36.040Z,8.33
2018-09-20T23:11:05.696Z,8.03
2018-09-20T23:13:35.303Z,7.07
2018-09-20T23:16:04.922Z,7.10
2018-09-20T23:18:34.999Z,7.27
2018-09-20T23:21:04.675Z,7.10
2018-09-20T23:23:34.295Z,6.90
2018-09-20T23:26:03.923Z,7.70
2018-09-20T23:28:33.539Z,7.57
2018-09-20T23:31:03.214Z,7.17
2018-09-20T23:33:32.863Z,7.77
2018-09-20T23:36:02.478Z,7.50
2018-09-20T23:38:32.087Z,7.43
2018-09-20T23:41:01.713Z,7.13
2018-09-20T23:43:31.321Z,7.37
2018-09-20T23:46:00.944Z,6.87
2018-09-20T23:48:30.551Z,6.83
2018-09-20T23:51:00.208Z,6.87
2018-09-20T23:53:29.820Z,7.17
2018-09-20T23:55:59.450Z,7.17
2018-09-20T23:58:29.060Z,7.03
